Brockwell, Arkansas
Current Conditions -  °F | °C
As of 11:55 AM on Monday 24 Nov 2014 (Local Time) from KBVX Reporting Station
Clear Clear  
Wind Chill: 55°   Ceiling: Unl
Heat Index: 55°   Visibility: 10mi
Dew Point: 28°   Wind: 14mph
Humidity: 36%   Direction: 270°W
Pressure: 29.86"   Gusts: 18mph
Location:  36.14°N, 91.93°W
Report Text: KBVX 241755Z AUTO 27012G16KT 10SM CLR 13/M02 A2986 RMK AO1 10130 20060 52010
Loading
Personal Weather Stations






























Interactive Weather Map New forecast layout! Learn more

10-Day Weather Forecast

Advertisements
Track Severe Weather on mobile